Terminal Aerodrome Forecast
Issued by NWS

Home | Current Version | Previous Version | Text Only | Print | Product List | Glossary On
Versions: 1 2 3 4 5 6 7 8 9 10 11 12 13 14 15 16 17 18 19 20 21 22 23 24 25
000
FTUS43 KSGF 260407 AAA
TAFJLN
TAF AMD
KJLN 260407Z 2604/2624 04005KT 4SM -RA BR BKN005 OVC015
     FM260700 36004KT P6SM BKN010
     FM260900 34004KT P6SM BKN005
     FM261200 34004KT P6SM BKN012
     FM261700 31004KT P6SM SCT025=

USA.gov is the U.S. government's official web portal to all federal, state and local government web resources and services.